createdAt,value
2023-03-26T00:00:00.569Z,9.20
2023-03-26T00:02:30.527Z,9.18
2023-03-26T00:05:00.076Z,9.07
2023-03-26T00:07:32.999Z,9.03
2023-03-26T00:10:02.139Z,9.07
2023-03-26T00:12:31.885Z,9.03
2023-03-26T00:15:03.776Z,9.06
2023-03-26T00:17:32.611Z,9.09
2023-03-26T00:23:03.150Z,9.11
2023-03-26T00:25:32.762Z,9.06
2023-03-26T00:28:01.860Z,9.05
2023-03-26T00:30:30.744Z,9.05
2023-03-26T00:32:59.198Z,9.03
2023-03-26T00:35:27.548Z,9.09
2023-03-26T00:37:56.288Z,9.13
2023-03-26T00:40:25.038Z,9.08
2023-03-26T00:42:53.388Z,9.10
2023-03-26T00:45:22.494Z,9.07
2023-03-26T00:47:51.099Z,9.08
2023-03-26T00:50:20.125Z,9.04
2023-03-26T00:52:48.772Z,9.07
2023-03-26T00:55:24.084Z,9.08
2023-03-26T00:57:55.884Z,9.08
2023-03-26T01:00:32.381Z,9.03
2023-03-26T01:03:05.178Z,9.06
2023-03-26T01:05:37.289Z,9.10
2023-03-26T01:08:31.112Z,9.11
2023-03-26T01:11:05.533Z,9.17
2023-03-26T01:13:38.553Z,9.18
2023-03-26T01:16:20.581Z,9.13
2023-03-26T01:18:50.744Z,9.07
2023-03-26T01:21:23.180Z,9.07
2023-03-26T01:24:03.248Z,9.12
2023-03-26T01:26:46.864Z,9.09
2023-03-26T01:29:44.345Z,9.07
2023-03-26T01:32:34.399Z,9.06
2023-03-26T01:35:20.562Z,8.96
2023-03-26T01:38:16.070Z,8.94
2023-03-26T01:40:47.349Z,8.89
2023-03-26T01:43:39.743Z,8.95
2023-03-26T01:46:11.304Z,8.96
2023-03-26T01:48:42.924Z,8.92
2023-03-26T01:51:12.483Z,8.95
2023-03-26T01:53:45.733Z,8.93
2023-03-26T01:56:35.926Z,8.86
2023-03-26T01:59:39.005Z,8.90
2023-03-26T02:02:28.224Z,8.90
2023-03-26T02:05:23.540Z,8.91
2023-03-26T02:08:12.510Z,8.87
2023-03-26T02:10:46.352Z,8.90
2023-03-26T02:13:18.871Z,8.91
2023-03-26T02:16:02.603Z,8.89
2023-03-26T02:18:41.241Z,8.83
2023-03-26T02:21:20.655Z,8.80
2023-03-26T02:24:14.170Z,8.86
2023-03-26T02:26:43.557Z,8.90
2023-03-26T02:29:12.727Z,8.85
2023-03-26T02:31:41.166Z,8.86
2023-03-26T02:34:09.521Z,8.79
2023-03-26T02:36:38.149Z,8.71
2023-03-26T02:39:06.713Z,8.64
2023-03-26T02:41:36.247Z,8.64
2023-03-26T02:44:06.357Z,8.68
2023-03-26T02:46:34.873Z,8.59
2023-03-26T02:49:03.018Z,8.58
2023-03-26T02:51:35.156Z,8.59
2023-03-26T02:54:04.110Z,8.64
2023-03-26T02:56:33.270Z,8.61
2023-03-26T02:59:01.361Z,8.62
2023-03-26T03:01:36.675Z,8.63
2023-03-26T03:04:05.255Z,8.65
2023-03-26T03:06:38.798Z,8.69
2023-03-26T03:09:09.056Z,8.63
2023-03-26T03:11:41.519Z,8.52
2023-03-26T03:14:09.968Z,8.58
2023-03-26T03:16:40.367Z,8.57
2023-03-26T03:19:08.560Z,8.56
2023-03-26T03:21:39.980Z,8.57
2023-03-26T03:24:10.460Z,8.53
2023-03-26T03:26:39.481Z,8.54
2023-03-26T03:29:10.040Z,8.56
2023-03-26T03:31:38.820Z,8.58
2023-03-26T03:34:07.021Z,8.60
2023-03-26T03:36:38.800Z,8.58
2023-03-26T03:39:07.035Z,8.58
2023-03-26T03:41:37.840Z,8.60
2023-03-26T03:44:06.659Z,8.67
2023-03-26T03:46:38.270Z,8.61
2023-03-26T03:49:07.184Z,8.55
2023-03-26T03:51:35.698Z,8.58
2023-03-26T03:54:04.742Z,8.52
2023-03-26T03:56:53.088Z,8.46
2023-03-26T03:59:21.776Z,8.47
2023-03-26T04:01:51.247Z,8.41
2023-03-26T04:04:21.868Z,8.46
2023-03-26T04:06:53.061Z,8.49
2023-03-26T04:09:21.614Z,8.52
2023-03-26T04:11:54.113Z,8.41
2023-03-26T04:14:22.831Z,8.49
2023-03-26T04:16:51.330Z,8.45
2023-03-26T04:19:23.876Z,8.52
2023-03-26T04:21:52.608Z,8.57
2023-03-26T04:24:22.873Z,8.62
2023-03-26T04:26:59.993Z,8.65
2023-03-26T04:29:30.980Z,8.72
2023-03-26T04:31:59.421Z,8.73
2023-03-26T04:34:30.371Z,8.79
2023-03-26T04:36:59.085Z,8.80
2023-03-26T04:39:29.505Z,8.82
2023-03-26T04:41:58.408Z,8.86
2023-03-26T04:44:30.686Z,8.83
2023-03-26T04:46:59.315Z,8.84
2023-03-26T04:49:27.439Z,8.81
2023-03-26T04:51:56.117Z,8.88
2023-03-26T04:54:25.322Z,8.94
2023-03-26T04:57:01.297Z,8.90
2023-03-26T04:59:37.684Z,8.88
2023-03-26T05:02:07.333Z,8.98
2023-03-26T05:04:40.161Z,8.93
2023-03-26T05:07:09.934Z,8.91
2023-03-26T05:09:40.450Z,8.97
2023-03-26T05:12:08.817Z,9.02
2023-03-26T05:14:37.470Z,9.03
2023-03-26T05:17:11.758Z,9.05
2023-03-26T05:19:43.081Z,9.12
2023-03-26T05:22:11.756Z,9.21
2023-03-26T05:24:41.094Z,9.13
2023-03-26T05:27:15.300Z,9.16
2023-03-26T05:29:48.170Z,9.13
2023-03-26T05:32:17.107Z,9.14
2023-03-26T05:34:45.161Z,9.14
2023-03-26T05:37:15.120Z,9.17
2023-03-26T05:39:44.354Z,9.27
2023-03-26T05:42:12.514Z,9.29
2023-03-26T05:44:41.552Z,9.36
2023-03-26T05:47:12.779Z,9.36
2023-03-26T05:49:42.096Z,9.44
2023-03-26T05:52:10.748Z,9.52
2023-03-26T05:54:39.134Z,9.63
2023-03-26T05:57:07.577Z,9.73
2023-03-26T05:59:37.039Z,9.99
2023-03-26T06:02:07.999Z,10.00
2023-03-26T06:04:36.273Z,10.17
2023-03-26T06:07:11.823Z,10.19
2023-03-26T06:09:41.224Z,10.09
2023-03-26T06:12:10.806Z,10.36
2023-03-26T06:14:39.213Z,10.44
2023-03-26T06:17:08.074Z,10.61
2023-03-26T06:19:37.089Z,10.49
2023-03-26T06:22:06.111Z,10.57
2023-03-26T06:24:35.350Z,10.77
2023-03-26T06:27:03.403Z,10.80
2023-03-26T06:29:31.841Z,10.78
2023-03-26T06:32:09.165Z,10.92
2023-03-26T06:34:45.062Z,11.09
2023-03-26T06:37:13.207Z,11.27
2023-03-26T06:39:41.505Z,11.55
2023-03-26T06:42:09.451Z,11.62
2023-03-26T06:44:37.365Z,11.74
2023-03-26T06:47:06.006Z,11.81
2023-03-26T06:49:34.838Z,12.03
2023-03-26T06:52:03.373Z,11.98
2023-03-26T06:54:32.287Z,12.04
2023-03-26T06:57:00.368Z,12.02
2023-03-26T06:59:30.498Z,12.10
2023-03-26T07:01:58.912Z,12.42
2023-03-26T07:04:27.007Z,12.45
2023-03-26T07:06:56.517Z,12.46
2023-03-26T07:09:26.513Z,12.25
2023-03-26T07:11:56.855Z,12.11
2023-03-26T07:14:26.079Z,11.79
2023-03-26T07:16:54.260Z,11.68
2023-03-26T07:19:22.871Z,11.71
2023-03-26T07:21:51.992Z,11.65
2023-03-26T07:24:21.334Z,11.88
2023-03-26T07:27:00.912Z,12.04
2023-03-26T07:29:46.681Z,12.13
2023-03-26T07:32:33.973Z,11.87
2023-03-26T07:35:08.776Z,11.56
2023-03-26T07:37:51.410Z,11.38
2023-03-26T07:40:56.859Z,11.30
2023-03-26T07:43:34.009Z,11.33
2023-03-26T07:46:02.858Z,11.46
2023-03-26T07:48:45.017Z,11.57
2023-03-26T07:51:15.930Z,11.50
2023-03-26T07:53:51.107Z,11.52
2023-03-26T07:56:42.755Z,11.58
2023-03-26T07:59:19.149Z,11.48
2023-03-26T08:02:00.464Z,11.51
2023-03-26T08:04:57.260Z,11.52
2023-03-26T08:08:11.389Z,11.63
2023-03-26T08:10:45.358Z,11.63
2023-03-26T08:13:36.675Z,11.64
2023-03-26T08:16:17.141Z,11.73
2023-03-26T08:18:55.956Z,11.87
2023-03-26T08:21:28.152Z,11.92
2023-03-26T08:24:22.598Z,11.92
2023-03-26T08:26:59.449Z,11.76
2023-03-26T08:29:39.777Z,11.67
2023-03-26T08:32:19.162Z,11.66
2023-03-26T08:34:47.553Z,11.81
2023-03-26T08:37:15.844Z,11.89
2023-03-26T08:39:44.332Z,12.02
2023-03-26T08:42:49.614Z,12.06
2023-03-26T08:45:27.482Z,12.12
2023-03-26T08:48:23.063Z,12.12
2023-03-26T08:51:11.116Z,12.07
2023-03-26T08:53:58.535Z,11.94
2023-03-26T08:56:51.212Z,11.92
2023-03-26T08:59:43.369Z,11.93
2023-03-26T09:02:39.920Z,11.89
2023-03-26T09:05:39.654Z,11.79
2023-03-26T09:08:54.212Z,11.70
2023-03-26T09:11:51.803Z,11.74
2023-03-26T09:14:46.499Z,11.88
2023-03-26T09:17:31.524Z,11.94
2023-03-26T09:20:02.842Z,11.97
2023-03-26T09:22:55.728Z,12.18
2023-03-26T09:25:59.808Z,12.20
2023-03-26T09:29:13.002Z,12.29
2023-03-26T09:31:58.387Z,12.40
2023-03-26T09:34:30.844Z,12.48
2023-03-26T09:37:22.384Z,12.29
2023-03-26T09:40:23.009Z,12.29
2023-03-26T09:43:02.280Z,12.26
2023-03-26T09:45:40.395Z,12.23
2023-03-26T09:48:26.303Z,12.08
2023-03-26T09:51:27.368Z,12.03
2023-03-26T09:54:26.704Z,11.83
2023-03-26T09:57:21.258Z,11.81
2023-03-26T10:00:13.440Z,11.69
2023-03-26T10:03:13.328Z,11.72
2023-03-26T10:06:12.115Z,11.78
2023-03-26T10:09:14.146Z,11.85
2023-03-26T10:11:51.475Z,11.88
2023-03-26T10:14:53.785Z,11.96
2023-03-26T10:17:41.747Z,12.11
2023-03-26T10:20:32.650Z,12.19
2023-03-26T10:23:08.427Z,12.47
2023-03-26T10:25:48.307Z,12.47
2023-03-26T10:28:54.022Z,12.30
2023-03-26T10:32:04.015Z,12.19
2023-03-26T10:34:38.680Z,12.12
2023-03-26T10:37:41.412Z,11.96
2023-03-26T10:40:28.348Z,11.98
2023-03-26T10:43:02.607Z,12.11
2023-03-26T10:45:37.616Z,12.23
2023-03-26T10:48:17.346Z,12.26
2023-03-26T10:51:15.018Z,12.41
2023-03-26T10:53:55.725Z,12.44
2023-03-26T10:56:47.081Z,12.53
2023-03-26T10:59:16.582Z,12.63
2023-03-26T11:02:04.190Z,12.58
2023-03-26T11:04:59.814Z,12.56
2023-03-26T11:07:54.480Z,12.41
2023-03-26T11:10:27.334Z,12.24
2023-03-26T11:13:11.921Z,12.08
2023-03-26T11:16:06.929Z,11.90
2023-03-26T11:18:57.448Z,11.89
2023-03-26T11:21:41.371Z,11.99
2023-03-26T11:24:54.661Z,12.09
2023-03-26T11:27:44.540Z,12.30
2023-03-26T11:30:25.553Z,12.45
2023-03-26T11:33:24.706Z,12.58
2023-03-26T11:35:56.695Z,12.60
2023-03-26T11:38:47.085Z,12.57
2023-03-26T11:41:22.799Z,12.54
2023-03-26T11:44:03.271Z,12.72
2023-03-26T11:46:33.760Z,12.93
2023-03-26T11:49:07.533Z,13.16
2023-03-26T11:51:49.364Z,13.02
2023-03-26T11:54:18.350Z,12.98
2023-03-26T11:57:05.120Z,12.92
2023-03-26T11:59:57.083Z,12.85
2023-03-26T12:02:29.821Z,12.80
2023-03-26T12:05:13.508Z,12.61
2023-03-26T12:07:52.765Z,12.48
2023-03-26T12:10:24.838Z,12.54
2023-03-26T12:12:57.182Z,12.51
2023-03-26T12:15:25.966Z,12.46
2023-03-26T12:17:59.652Z,12.39
2023-03-26T12:20:34.174Z,12.48
2023-03-26T12:23:05.401Z,12.46
2023-03-26T12:25:39.697Z,12.39
2023-03-26T12:28:16.471Z,12.36
2023-03-26T12:31:03.236Z,12.46
2023-03-26T12:33:39.378Z,12.59
2023-03-26T12:36:20.812Z,12.57
2023-03-26T12:39:16.647Z,12.62
2023-03-26T12:44:42.665Z,12.66
2023-03-26T12:44:50.182Z,12.53
2023-03-26T12:47:58.147Z,12.32
2023-03-26T12:50:18.140Z,12.20
2023-03-26T12:53:15.223Z,12.13
2023-03-26T12:55:53.687Z,12.04
2023-03-26T12:58:32.838Z,11.93
2023-03-26T13:01:19.443Z,11.89
2023-03-26T13:04:26.530Z,11.85
2023-03-26T13:07:01.936Z,11.74
2023-03-26T13:09:36.980Z,11.75
2023-03-26T13:12:48.819Z,11.76
2023-03-26T13:15:29.232Z,11.80
2023-03-26T13:18:09.645Z,11.82
2023-03-26T13:20:52.063Z,11.79
2023-03-26T13:23:27.729Z,11.80
2023-03-26T13:26:08.658Z,11.76
2023-03-26T13:28:42.785Z,11.81
2023-03-26T13:31:42.363Z,11.79
2023-03-26T13:34:31.479Z,11.71
2023-03-26T13:37:20.940Z,11.71
2023-03-26T13:40:15.887Z,11.60
2023-03-26T13:43:22.125Z,11.44
2023-03-26T13:46:06.792Z,11.42
2023-03-26T13:48:53.785Z,11.42
2023-03-26T13:51:48.443Z,11.47
2023-03-26T13:54:51.597Z,11.58
2023-03-26T13:57:42.243Z,11.64
2023-03-26T14:00:22.241Z,11.77
2023-03-26T14:02:58.190Z,11.82
2023-03-26T14:05:40.258Z,11.78
2023-03-26T14:08:25.373Z,11.82
2023-03-26T14:11:07.246Z,11.77
2023-03-26T14:13:56.887Z,11.66
2023-03-26T14:16:39.454Z,11.60
2023-03-26T14:19:25.342Z,11.60
2023-03-26T14:22:04.070Z,11.58
2023-03-26T14:24:46.584Z,11.58
2023-03-26T14:27:25.018Z,11.50
2023-03-26T14:30:11.880Z,11.52
2023-03-26T14:32:49.742Z,11.52
2023-03-26T14:35:56.278Z,11.51
2023-03-26T14:38:33.389Z,11.45
2023-03-26T14:41:30.267Z,11.46
2023-03-26T14:44:18.051Z,11.43
2023-03-26T14:47:16.834Z,11.41
2023-03-26T14:50:06.954Z,11.42
2023-03-26T14:52:52.510Z,11.40
2023-03-26T14:56:19.128Z,11.33
2023-03-26T14:59:31.204Z,11.30
2023-03-26T15:02:18.040Z,11.26
2023-03-26T15:05:18.513Z,11.24
2023-03-26T15:08:23.414Z,11.22
2023-03-26T15:11:23.069Z,11.22
2023-03-26T15:14:10.891Z,11.21
2023-03-26T15:16:51.794Z,11.23
2023-03-26T15:19:41.996Z,11.28
2023-03-26T15:22:47.811Z,11.24
2023-03-26T15:25:31.219Z,11.19
2023-03-26T15:28:08.739Z,11.16
2023-03-26T15:31:10.288Z,11.09
2023-03-26T15:34:03.487Z,11.10
2023-03-26T15:36:59.191Z,11.06
2023-03-26T15:40:07.909Z,10.98
2023-03-26T15:42:52.508Z,10.91
2023-03-26T15:46:10.323Z,10.88
2023-03-26T15:49:04.404Z,10.85
2023-03-26T15:52:17.914Z,10.84
2023-03-26T15:55:14.804Z,10.76
2023-03-26T15:58:04.302Z,10.65
2023-03-26T16:00:58.009Z,10.56
2023-03-26T16:03:49.582Z,10.43
2023-03-26T16:06:31.381Z,10.35
2023-03-26T16:09:25.741Z,10.23
2023-03-26T16:11:59.030Z,10.18
2023-03-26T16:15:15.180Z,10.10
2023-03-26T16:18:12.798Z,10.08
2023-03-26T16:20:51.198Z,10.00
2023-03-26T16:23:47.925Z,9.96
2023-03-26T16:26:38.261Z,9.91
2023-03-26T16:29:22.937Z,9.89
2023-03-26T16:32:16.138Z,9.89
2023-03-26T16:35:14.350Z,9.90
2023-03-26T16:37:46.430Z,9.90
2023-03-26T16:40:24.029Z,9.86
2023-03-26T16:42:58.051Z,9.83
2023-03-26T16:45:36.562Z,9.78
2023-03-26T16:48:37.533Z,9.72
2023-03-26T16:51:18.902Z,9.71
2023-03-26T16:53:59.036Z,9.72
2023-03-26T16:57:03.295Z,9.64
2023-03-26T17:00:08.321Z,9.60
2023-03-26T17:03:18.746Z,9.56
2023-03-26T17:05:58.721Z,9.57
2023-03-26T17:08:39.247Z,9.57
2023-03-26T17:11:09.984Z,9.62
2023-03-26T17:14:12.891Z,9.58
2023-03-26T17:16:50.731Z,9.63
2023-03-26T17:19:34.130Z,9.66
2023-03-26T17:22:30.753Z,9.66
2023-03-26T17:25:05.516Z,9.62
2023-03-26T17:27:51.927Z,9.62
2023-03-26T17:31:08.587Z,9.62
2023-03-26T17:33:45.320Z,9.58
2023-03-26T17:36:17.065Z,9.57
2023-03-26T17:38:48.238Z,9.58
2023-03-26T17:41:55.756Z,9.61
2023-03-26T17:44:37.955Z,9.57
2023-03-26T17:47:14.339Z,9.56
2023-03-26T17:49:44.041Z,9.51
2023-03-26T17:52:34.707Z,9.56
2023-03-26T17:55:03.244Z,9.58
2023-03-26T17:57:46.773Z,9.57
2023-03-26T18:00:18.985Z,9.57
2023-03-26T18:03:17.384Z,9.54
2023-03-26T18:05:46.391Z,9.50
2023-03-26T18:08:41.735Z,9.49
2023-03-26T18:11:38.083Z,9.50
2023-03-26T18:14:38.815Z,9.51
2023-03-26T18:17:07.218Z,9.53
2023-03-26T18:19:50.283Z,9.55
2023-03-26T18:22:28.069Z,9.55
2023-03-26T18:25:00.034Z,9.54
2023-03-26T18:27:39.919Z,9.53
2023-03-26T18:30:23.113Z,9.54
2023-03-26T18:33:12.857Z,9.56
2023-03-26T18:35:52.457Z,9.57
2023-03-26T18:38:37.166Z,9.56
2023-03-26T18:41:10.341Z,9.56
2023-03-26T18:43:44.483Z,9.53
2023-03-26T18:46:17.422Z,9.50
2023-03-26T18:48:47.848Z,9.50
2023-03-26T18:51:23.341Z,9.50
2023-03-26T18:53:55.750Z,9.51
2023-03-26T18:56:38.266Z,9.53
2023-03-26T18:59:31.281Z,9.51
2023-03-26T19:02:01.825Z,9.47
2023-03-26T19:04:35.382Z,9.43
2023-03-26T19:07:07.249Z,9.46
2023-03-26T19:09:38.480Z,9.44
2023-03-26T19:12:18.420Z,9.46
2023-03-26T19:15:13.156Z,9.50
2023-03-26T19:17:57.179Z,9.57
2023-03-26T19:20:30.848Z,9.49
2023-03-26T19:22:59.297Z,9.44
2023-03-26T19:25:39.098Z,9.48
2023-03-26T19:28:16.530Z,9.47
2023-03-26T19:30:46.537Z,9.50
2023-03-26T19:33:19.073Z,9.44
2023-03-26T19:36:15.416Z,9.41
2023-03-26T19:38:59.222Z,9.39
2023-03-26T19:41:44.432Z,9.41
2023-03-26T19:44:29.562Z,9.43
2023-03-26T19:47:31.893Z,9.46
2023-03-26T19:50:30.242Z,9.47
2023-03-26T19:53:16.842Z,9.45
2023-03-26T19:55:55.991Z,9.47
2023-03-26T19:58:27.704Z,9.49
2023-03-26T20:00:56.839Z,9.45
2023-03-26T20:03:43.562Z,9.47
2023-03-26T20:06:42.424Z,9.43
2023-03-26T20:09:13.664Z,9.43
2023-03-26T20:11:42.637Z,9.41
2023-03-26T20:14:26.656Z,9.38
2023-03-26T20:19:42.116Z,9.38
2023-03-26T20:22:24.303Z,9.34
2023-03-26T20:24:53.239Z,9.32
2023-03-26T20:27:24.145Z,9.34
2023-03-26T20:29:52.390Z,9.31
2023-03-26T20:32:26.482Z,9.35
2023-03-26T20:34:59.438Z,9.33
2023-03-26T20:37:28.075Z,9.40
2023-03-26T20:39:59.978Z,9.39
2023-03-26T20:42:28.562Z,9.38
2023-03-26T20:44:57.410Z,9.40
2023-03-26T20:47:26.939Z,9.41
2023-03-26T20:49:56.639Z,9.37
2023-03-26T20:52:26.032Z,9.42
2023-03-26T20:54:59.477Z,9.35
2023-03-26T20:57:28.502Z,9.35
2023-03-26T20:59:58.426Z,9.34
2023-03-26T21:02:28.287Z,9.36
2023-03-26T21:04:57.986Z,9.33
2023-03-26T21:07:29.368Z,9.37
2023-03-26T21:09:59.385Z,9.37
2023-03-26T21:12:31.370Z,9.36
2023-03-26T21:15:07.231Z,9.36
2023-03-26T21:17:39.595Z,9.38
2023-03-26T21:20:18.134Z,9.38
2023-03-26T21:23:04.232Z,9.34
2023-03-26T21:25:45.138Z,9.38
2023-03-26T21:28:43.024Z,9.40
2023-03-26T21:31:14.783Z,9.36
2023-03-26T21:33:44.174Z,9.34
2023-03-26T21:36:13.804Z,9.32
2023-03-26T21:38:45.452Z,9.33
2023-03-26T21:41:39.011Z,9.31
2023-03-26T21:44:07.521Z,9.32
2023-03-26T21:46:36.217Z,9.31
2023-03-26T21:49:06.479Z,9.31
2023-03-26T21:51:37.521Z,9.34
2023-03-26T21:54:19.988Z,9.32
2023-03-26T21:57:10.242Z,9.25
2023-03-26T22:00:18.532Z,9.26
2023-03-26T22:03:08.731Z,9.29
2023-03-26T22:05:55.338Z,9.33
2023-03-26T22:08:32.008Z,9.30
2023-03-26T22:11:03.773Z,9.26
2023-03-26T22:13:33.060Z,9.30
2023-03-26T22:16:01.631Z,9.37
2023-03-26T22:18:33.342Z,9.39
2023-03-26T22:21:04.200Z,9.38
2023-03-26T22:23:36.603Z,9.39
2023-03-26T22:26:06.555Z,9.38
2023-03-26T22:28:36.857Z,9.42
2023-03-26T22:31:09.178Z,9.38
2023-03-26T22:33:43.192Z,9.38
2023-03-26T22:36:22.466Z,9.39
2023-03-26T22:38:54.267Z,9.40
2023-03-26T22:41:23.513Z,9.39
2023-03-26T22:43:56.863Z,9.40
2023-03-26T22:46:26.821Z,9.35
2023-03-26T22:48:56.230Z,9.34
2023-03-26T22:51:28.765Z,9.35
2023-03-26T22:53:58.679Z,9.35
2023-03-26T22:56:27.863Z,9.31
2023-03-26T22:58:57.354Z,9.25
2023-03-26T23:01:26.540Z,9.31
2023-03-26T23:03:55.335Z,9.36
2023-03-26T23:06:23.518Z,9.38
2023-03-26T23:08:52.905Z,9.40
2023-03-26T23:11:22.706Z,9.41
2023-03-26T23:13:52.023Z,9.39
2023-03-26T23:16:24.166Z,9.35
2023-03-26T23:18:59.246Z,9.37
2023-03-26T23:21:29.749Z,9.38
2023-03-26T23:23:58.877Z,9.38
2023-03-26T23:26:34.998Z,9.40
2023-03-26T23:29:06.686Z,9.41
2023-03-26T23:31:35.836Z,9.43
2023-03-26T23:34:04.402Z,9.41
2023-03-26T23:36:32.601Z,9.41
2023-03-26T23:39:02.032Z,9.43
2023-03-26T23:41:30.390Z,9.41
2023-03-26T23:44:03.737Z,9.40
2023-03-26T23:46:35.237Z,9.40
2023-03-26T23:49:04.677Z,9.36
2023-03-26T23:51:36.541Z,9.37
2023-03-26T23:54:09.916Z,9.35
2023-03-26T23:56:41.639Z,9.40
2023-03-26T23:59:14.025Z,9.37
